sensor_id;sensor_type;location;lat;lon;timestamp;temperature;humidity
9399;DHT22;4739;49.334;8.792;2023-01-23T00:00:13;2.50;99.90
9399;DHT22;4739;49.334;8.792;2023-01-23T00:02:40;2.50;99.90
9399;DHT22;4739;49.334;8.792;2023-01-23T00:05:06;2.50;99.90
9399;DHT22;4739;49.334;8.792;2023-01-23T00:07:31;2.50;99.90
9399;DHT22;4739;49.334;8.792;2023-01-23T00:09:57;2.40;99.90
9399;DHT22;4739;49.334;8.792;2023-01-23T00:12:22;2.50;99.90
9399;DHT22;4739;49.334;8.792;2023-01-23T00:14:48;2.50;99.90
9399;DHT22;4739;49.334;8.792;2023-01-23T00:17:13;2.40;99.90
9399;DHT22;4739;49.334;8.792;2023-01-23T00:19:39;2.50;99.90
9399;DHT22;4739;49.334;8.792;2023-01-23T00:22:05;2.40;99.90
9399;DHT22;4739;49.334;8.792;2023-01-23T00:24:30;2.40;99.90
9399;DHT22;4739;49.334;8.792;2023-01-23T00:26:56;2.40;99.90
9399;DHT22;4739;49.334;8.792;2023-01-23T00:29:22;2.40;99.90
9399;DHT22;4739;49.334;8.792;2023-01-23T00:31:47;2.40;99.90
9399;DHT22;4739;49.334;8.792;2023-01-23T00:34:14;2.40;99.90
9399;DHT22;4739;49.334;8.792;2023-01-23T00:36:41;2.40;99.90
9399;DHT22;4739;49.334;8.792;2023-01-23T00:39:14;2.30;99.90
9399;DHT22;4739;49.334;8.792;2023-01-23T00:41:40;2.30;99.90
9399;DHT22;4739;49.334;8.792;2023-01-23T00:44:06;2.30;99.90
9399;DHT22;4739;49.334;8.792;2023-01-23T00:46:32;2.30;99.90
9399;DHT22;4739;49.334;8.792;2023-01-23T00:48:59;2.40;99.90
9399;DHT22;4739;49.334;8.792;2023-01-23T00:51:24;2.30;99.90
9399;DHT22;4739;49.334;8.792;2023-01-23T00:53:50;2.20;99.90
9399;DHT22;4739;49.334;8.792;2023-01-23T00:56:15;2.20;99.90
9399;DHT22;4739;49.334;8.792;2023-01-23T00:58:41;2.20;99.90
9399;DHT22;4739;49.334;8.792;2023-01-23T01:01:07;2.10;99.90
9399;DHT22;4739;49.334;8.792;2023-01-23T01:03:33;2.10;99.90
9399;DHT22;4739;49.334;8.792;2023-01-23T01:05:59;2.10;99.90
9399;DHT22;4739;49.334;8.792;2023-01-23T01:08:25;2.00;99.90
9399;DHT22;4739;49.334;8.792;2023-01-23T01:10:51;1.90;99.90
9399;DHT22;4739;49.334;8.792;2023-01-23T01:13:17;1.70;99.90
9399;DHT22;4739;49.334;8.792;2023-01-23T01:15:49;1.60;99.90
9399;DHT22;4739;49.334;8.792;2023-01-23T01:18:16;1.50;99.90
9399;DHT22;4739;49.334;8.792;2023-01-23T01:23:20;1.30;99.90
9399;DHT22;4739;49.334;8.792;2023-01-23T01:25:46;1.30;99.90
9399;DHT22;4739;49.334;8.792;2023-01-23T01:28:12;1.30;99.90
9399;DHT22;4739;49.334;8.792;2023-01-23T01:30:38;1.30;99.90
9399;DHT22;4739;49.334;8.792;2023-01-23T01:33:04;1.30;99.90
9399;DHT22;4739;49.334;8.792;2023-01-23T01:35:30;1.30;99.90
9399;DHT22;4739;49.334;8.792;2023-01-23T01:37:55;1.40;99.90
9399;DHT22;4739;49.334;8.792;2023-01-23T01:40:24;1.50;99.90
9399;DHT22;4739;49.334;8.792;2023-01-23T01:42:57;1.50;99.90
9399;DHT22;4739;49.334;8.792;2023-01-23T01:51:20;1.50;99.90
9399;DHT22;4739;49.334;8.792;2023-01-23T01:53:49;1.50;99.90
9399;DHT22;4739;49.334;8.792;2023-01-23T01:56:17;1.50;99.90
9399;DHT22;4739;49.334;8.792;2023-01-23T01:58:45;1.50;99.90
9399;DHT22;4739;49.334;8.792;2023-01-23T02:01:12;1.50;99.90
9399;DHT22;4739;49.334;8.792;2023-01-23T02:03:38;1.50;99.90
9399;DHT22;4739;49.334;8.792;2023-01-23T02:06:04;1.50;99.90
9399;DHT22;4739;49.334;8.792;2023-01-23T02:11:26;1.50;99.90
9399;DHT22;4739;49.334;8.792;2023-01-23T02:13:52;1.50;99.90
9399;DHT22;4739;49.334;8.792;2023-01-23T02:16:25;1.60;99.90
9399;DHT22;4739;49.334;8.792;2023-01-23T02:18:53;1.60;99.90
9399;DHT22;4739;49.334;8.792;2023-01-23T02:21:22;1.60;99.90
9399;DHT22;4739;49.334;8.792;2023-01-23T02:26:28;1.70;99.90
9399;DHT22;4739;49.334;8.792;2023-01-23T02:28:54;1.80;99.90
9399;DHT22;4739;49.334;8.792;2023-01-23T02:31:21;1.80;99.90
9399;DHT22;4739;49.334;8.792;2023-01-23T02:33:50;1.90;99.90
9399;DHT22;4739;49.334;8.792;2023-01-23T02:36:17;1.90;99.90
9399;DHT22;4739;49.334;8.792;2023-01-23T02:39:11;1.90;99.90
9399;DHT22;4739;49.334;8.792;2023-01-23T02:41:43;1.90;99.90
9399;DHT22;4739;49.334;8.792;2023-01-23T02:44:22;1.90;99.90
9399;DHT22;4739;49.334;8.792;2023-01-23T02:46:54;1.90;99.90
9399;DHT22;4739;49.334;8.792;2023-01-23T02:49:21;1.80;99.90
9399;DHT22;4739;49.334;8.792;2023-01-23T02:51:48;1.90;99.90
9399;DHT22;4739;49.334;8.792;2023-01-23T02:54:15;2.00;99.90
9399;DHT22;4739;49.334;8.792;2023-01-23T02:56:41;2.00;99.90
9399;DHT22;4739;49.334;8.792;2023-01-23T02:59:07;1.90;99.90
9399;DHT22;4739;49.334;8.792;2023-01-23T03:01:52;2.00;99.90
9399;DHT22;4739;49.334;8.792;2023-01-23T03:04:18;2.00;99.90
9399;DHT22;4739;49.334;8.792;2023-01-23T03:06:44;2.00;99.90
9399;DHT22;4739;49.334;8.792;2023-01-23T03:09:14;1.90;99.90
9399;DHT22;4739;49.334;8.792;2023-01-23T03:11:42;1.90;99.90
9399;DHT22;4739;49.334;8.792;2023-01-23T03:14:11;1.90;99.90
9399;DHT22;4739;49.334;8.792;2023-01-23T03:16:36;1.90;99.90
9399;DHT22;4739;49.334;8.792;2023-01-23T03:19:04;1.90;99.90
9399;DHT22;4739;49.334;8.792;2023-01-23T03:21:31;1.90;99.90
9399;DHT22;4739;49.334;8.792;2023-01-23T03:23:57;1.90;99.90
9399;DHT22;4739;49.334;8.792;2023-01-23T03:26:24;2.00;99.90
9399;DHT22;4739;49.334;8.792;2023-01-23T03:28:49;2.10;99.90
9399;DHT22;4739;49.334;8.792;2023-01-23T03:31:33;2.10;99.90
9399;DHT22;4739;49.334;8.792;2023-01-23T03:33:59;2.10;99.90
9399;DHT22;4739;49.334;8.792;2023-01-23T03:36:25;2.10;99.90
9399;DHT22;4739;49.334;8.792;2023-01-23T03:38:51;2.20;99.90
9399;DHT22;4739;49.334;8.792;2023-01-23T03:41:35;2.20;99.90
9399;DHT22;4739;49.334;8.792;2023-01-23T03:44:02;2.20;99.90
9399;DHT22;4739;49.334;8.792;2023-01-23T03:46:28;2.20;99.90
9399;DHT22;4739;49.334;8.792;2023-01-23T03:48:53;2.20;99.90
9399;DHT22;4739;49.334;8.792;2023-01-23T03:51:19;2.30;99.90
9399;DHT22;4739;49.334;8.792;2023-01-23T03:53:44;2.30;99.90
9399;DHT22;4739;49.334;8.792;2023-01-23T03:56:10;2.30;99.90
9399;DHT22;4739;49.334;8.792;2023-01-23T03:58:35;2.40;99.90
9399;DHT22;4739;49.334;8.792;2023-01-23T04:01:05;2.40;99.90
9399;DHT22;4739;49.334;8.792;2023-01-23T04:03:31;2.50;99.90
9399;DHT22;4739;49.334;8.792;2023-01-23T04:05:58;2.50;99.90
9399;DHT22;4739;49.334;8.792;2023-01-23T04:08:24;2.50;99.90
9399;DHT22;4739;49.334;8.792;2023-01-23T04:10:50;2.50;99.90
9399;DHT22;4739;49.334;8.792;2023-01-23T04:13:15;2.50;99.90
9399;DHT22;4739;49.334;8.792;2023-01-23T04:15:41;2.50;99.90
9399;DHT22;4739;49.334;8.792;2023-01-23T04:18:07;2.50;99.90
9399;DHT22;4739;49.334;8.792;2023-01-23T04:20:33;2.50;99.90
9399;DHT22;4739;49.334;8.792;2023-01-23T04:22:58;2.60;99.90
9399;DHT22;4739;49.334;8.792;2023-01-23T04:25:24;2.60;99.90
9399;DHT22;4739;49.334;8.792;2023-01-23T04:27:50;2.70;99.90
9399;DHT22;4739;49.334;8.792;2023-01-23T04:30:15;2.60;99.90
9399;DHT22;4739;49.334;8.792;2023-01-23T04:32:41;2.50;99.90
9399;DHT22;4739;49.334;8.792;2023-01-23T04:35:07;2.40;99.90
9399;DHT22;4739;49.334;8.792;2023-01-23T04:37:32;2.40;99.90
9399;DHT22;4739;49.334;8.792;2023-01-23T04:39:58;2.50;99.90
9399;DHT22;4739;49.334;8.792;2023-01-23T04:42:23;2.40;99.90
9399;DHT22;4739;49.334;8.792;2023-01-23T04:44:49;2.50;99.90
9399;DHT22;4739;49.334;8.792;2023-01-23T04:47:15;2.50;99.90
9399;DHT22;4739;49.334;8.792;2023-01-23T04:49:40;2.60;99.90
9399;DHT22;4739;49.334;8.792;2023-01-23T04:52:07;2.50;99.90
9399;DHT22;4739;49.334;8.792;2023-01-23T04:54:33;2.50;99.90
9399;DHT22;4739;49.334;8.792;2023-01-23T04:56:58;2.60;99.90
9399;DHT22;4739;49.334;8.792;2023-01-23T04:59:24;2.60;99.90
9399;DHT22;4739;49.334;8.792;2023-01-23T05:01:50;2.40;99.90
9399;DHT22;4739;49.334;8.792;2023-01-23T05:04:15;2.50;99.90
9399;DHT22;4739;49.334;8.792;2023-01-23T05:06:41;2.50;99.90
9399;DHT22;4739;49.334;8.792;2023-01-23T05:09:07;2.50;99.90
9399;DHT22;4739;49.334;8.792;2023-01-23T05:11:32;2.60;99.90
9399;DHT22;4739;49.334;8.792;2023-01-23T05:13:58;2.50;99.90
9399;DHT22;4739;49.334;8.792;2023-01-23T05:16:24;2.50;99.90
9399;DHT22;4739;49.334;8.792;2023-01-23T05:18:49;2.50;99.90
9399;DHT22;4739;49.334;8.792;2023-01-23T05:21:15;2.50;99.90
9399;DHT22;4739;49.334;8.792;2023-01-23T05:23:40;2.50;99.90
9399;DHT22;4739;49.334;8.792;2023-01-23T05:26:06;2.50;99.90
9399;DHT22;4739;49.334;8.792;2023-01-23T05:28:31;2.60;99.90
9399;DHT22;4739;49.334;8.792;2023-01-23T05:30:57;2.60;99.90
9399;DHT22;4739;49.334;8.792;2023-01-23T05:33:23;2.60;99.90
9399;DHT22;4739;49.334;8.792;2023-01-23T05:35:48;2.70;99.90
9399;DHT22;4739;49.334;8.792;2023-01-23T05:38:14;2.70;99.90
9399;DHT22;4739;49.334;8.792;2023-01-23T05:40:39;2.70;99.90
9399;DHT22;4739;49.334;8.792;2023-01-23T05:43:05;2.50;99.90
9399;DHT22;4739;49.334;8.792;2023-01-23T05:45:31;2.60;99.90
9399;DHT22;4739;49.334;8.792;2023-01-23T05:47:56;2.60;99.90
9399;DHT22;4739;49.334;8.792;2023-01-23T05:50:22;2.60;99.90
9399;DHT22;4739;49.334;8.792;2023-01-23T05:52:49;2.60;99.90
9399;DHT22;4739;49.334;8.792;2023-01-23T05:55:14;2.70;99.90
9399;DHT22;4739;49.334;8.792;2023-01-23T05:57:40;2.60;99.90
9399;DHT22;4739;49.334;8.792;2023-01-23T06:00:09;2.60;99.90
9399;DHT22;4739;49.334;8.792;2023-01-23T06:02:35;2.50;99.90
9399;DHT22;4739;49.334;8.792;2023-01-23T06:05:01;2.40;99.90
9399;DHT22;4739;49.334;8.792;2023-01-23T06:07:27;2.40;99.90
9399;DHT22;4739;49.334;8.792;2023-01-23T06:09:52;2.40;99.90
9399;DHT22;4739;49.334;8.792;2023-01-23T06:12:18;2.30;99.90
9399;DHT22;4739;49.334;8.792;2023-01-23T06:14:43;2.30;99.90
9399;DHT22;4739;49.334;8.792;2023-01-23T06:17:11;2.30;99.90
9399;DHT22;4739;49.334;8.792;2023-01-23T06:19:36;2.30;99.90
9399;DHT22;4739;49.334;8.792;2023-01-23T06:22:02;2.30;99.90
9399;DHT22;4739;49.334;8.792;2023-01-23T06:24:28;2.30;99.90
9399;DHT22;4739;49.334;8.792;2023-01-23T06:26:53;2.20;99.90
9399;DHT22;4739;49.334;8.792;2023-01-23T06:29:19;2.10;99.90
9399;DHT22;4739;49.334;8.792;2023-01-23T06:31:44;2.10;99.90
9399;DHT22;4739;49.334;8.792;2023-01-23T06:34:12;2.00;99.90
9399;DHT22;4739;49.334;8.792;2023-01-23T06:36:38;2.00;99.90
9399;DHT22;4739;49.334;8.792;2023-01-23T06:39:05;2.00;99.90
9399;DHT22;4739;49.334;8.792;2023-01-23T06:41:30;2.00;99.90
9399;DHT22;4739;49.334;8.792;2023-01-23T06:43:56;2.00;99.90
9399;DHT22;4739;49.334;8.792;2023-01-23T06:46:21;1.90;99.90
9399;DHT22;4739;49.334;8.792;2023-01-23T06:48:47;1.90;99.90
9399;DHT22;4739;49.334;8.792;2023-01-23T06:51:13;1.70;99.90
9399;DHT22;4739;49.334;8.792;2023-01-23T06:53:38;1.70;99.90
9399;DHT22;4739;49.334;8.792;2023-01-23T06:56:06;1.80;99.90
9399;DHT22;4739;49.334;8.792;2023-01-23T06:58:33;1.90;99.90
9399;DHT22;4739;49.334;8.792;2023-01-23T07:00:59;2.00;99.90
9399;DHT22;4739;49.334;8.792;2023-01-23T07:03:32;2.10;99.90
9399;DHT22;4739;49.334;8.792;2023-01-23T07:06:02;2.10;99.90
9399;DHT22;4739;49.334;8.792;2023-01-23T07:08:27;2.10;99.90
9399;DHT22;4739;49.334;8.792;2023-01-23T07:10:53;2.20;99.90
9399;DHT22;4739;49.334;8.792;2023-01-23T07:13:18;2.20;99.90
9399;DHT22;4739;49.334;8.792;2023-01-23T07:15:45;2.20;99.90
9399;DHT22;4739;49.334;8.792;2023-01-23T07:18:11;2.20;99.90
9399;DHT22;4739;49.334;8.792;2023-01-23T07:20:37;2.30;99.90
9399;DHT22;4739;49.334;8.792;2023-01-23T07:23:02;2.30;99.90
9399;DHT22;4739;49.334;8.792;2023-01-23T07:25:28;2.30;99.90
9399;DHT22;4739;49.334;8.792;2023-01-23T07:27:54;2.40;99.90
9399;DHT22;4739;49.334;8.792;2023-01-23T07:30:20;2.40;99.90
9399;DHT22;4739;49.334;8.792;2023-01-23T07:32:46;2.40;99.90
9399;DHT22;4739;49.334;8.792;2023-01-23T07:35:11;2.40;99.90
9399;DHT22;4739;49.334;8.792;2023-01-23T07:37:37;2.50;99.90
9399;DHT22;4739;49.334;8.792;2023-01-23T07:40:03;2.60;99.90
9399;DHT22;4739;49.334;8.792;2023-01-23T07:42:28;2.60;99.90
9399;DHT22;4739;49.334;8.792;2023-01-23T07:44:54;2.60;99.90
9399;DHT22;4739;49.334;8.792;2023-01-23T07:47:19;2.60;99.90
9399;DHT22;4739;49.334;8.792;2023-01-23T07:49:45;2.70;99.90
9399;DHT22;4739;49.334;8.792;2023-01-23T07:52:11;2.70;99.90
9399;DHT22;4739;49.334;8.792;2023-01-23T07:54:36;2.70;99.90
9399;DHT22;4739;49.334;8.792;2023-01-23T07:57:02;2.70;99.90
9399;DHT22;4739;49.334;8.792;2023-01-23T07:59:28;2.70;99.90
9399;DHT22;4739;49.334;8.792;2023-01-23T08:01:53;2.70;99.90
9399;DHT22;4739;49.334;8.792;2023-01-23T08:04:19;2.80;99.90
9399;DHT22;4739;49.334;8.792;2023-01-23T08:06:44;2.80;99.90
9399;DHT22;4739;49.334;8.792;2023-01-23T08:09:10;2.90;99.90
9399;DHT22;4739;49.334;8.792;2023-01-23T08:11:36;2.90;99.90
9399;DHT22;4739;49.334;8.792;2023-01-23T08:14:01;3.00;99.90
9399;DHT22;4739;49.334;8.792;2023-01-23T08:16:27;3.00;99.90
9399;DHT22;4739;49.334;8.792;2023-01-23T08:18:53;3.10;99.90
9399;DHT22;4739;49.334;8.792;2023-01-23T08:21:18;3.10;99.90
9399;DHT22;4739;49.334;8.792;2023-01-23T08:23:44;3.10;99.90
9399;DHT22;4739;49.334;8.792;2023-01-23T08:26:12;3.10;99.90
9399;DHT22;4739;49.334;8.792;2023-01-23T08:28:40;3.10;99.90
9399;DHT22;4739;49.334;8.792;2023-01-23T08:31:07;3.10;99.90
9399;DHT22;4739;49.334;8.792;2023-01-23T08:33:34;3.10;99.90
9399;DHT22;4739;49.334;8.792;2023-01-23T08:36:00;3.20;99.90
9399;DHT22;4739;49.334;8.792;2023-01-23T08:38:26;3.10;99.90
9399;DHT22;4739;49.334;8.792;2023-01-23T08:40:53;3.10;99.90
9399;DHT22;4739;49.334;8.792;2023-01-23T08:43:20;3.20;99.90
9399;DHT22;4739;49.334;8.792;2023-01-23T08:45:50;3.30;99.90
9399;DHT22;4739;49.334;8.792;2023-01-23T08:48:16;3.30;99.90
9399;DHT22;4739;49.334;8.792;2023-01-23T08:50:42;3.30;99.90
9399;DHT22;4739;49.334;8.792;2023-01-23T08:53:08;3.40;99.90
9399;DHT22;4739;49.334;8.792;2023-01-23T08:55:34;3.40;99.90
9399;DHT22;4739;49.334;8.792;2023-01-23T08:58:02;3.40;99.90
9399;DHT22;4739;49.334;8.792;2023-01-23T09:00:27;3.40;99.90
9399;DHT22;4739;49.334;8.792;2023-01-23T09:02:53;3.30;99.90
9399;DHT22;4739;49.334;8.792;2023-01-23T09:05:19;3.10;99.90
9399;DHT22;4739;49.334;8.792;2023-01-23T09:07:46;3.00;99.90
9399;DHT22;4739;49.334;8.792;2023-01-23T09:10:11;3.00;99.90
9399;DHT22;4739;49.334;8.792;2023-01-23T09:12:38;3.00;99.90
9399;DHT22;4739;49.334;8.792;2023-01-23T09:15:04;3.00;99.90
9399;DHT22;4739;49.334;8.792;2023-01-23T09:17:30;3.10;99.90
9399;DHT22;4739;49.334;8.792;2023-01-23T09:19:55;3.00;99.90
9399;DHT22;4739;49.334;8.792;2023-01-23T09:22:23;2.90;99.90
9399;DHT22;4739;49.334;8.792;2023-01-23T09:24:49;2.90;99.90
9399;DHT22;4739;49.334;8.792;2023-01-23T09:27:14;3.00;99.90
9399;DHT22;4739;49.334;8.792;2023-01-23T09:29:40;3.10;99.90
9399;DHT22;4739;49.334;8.792;2023-01-23T09:32:05;3.10;99.90
9399;DHT22;4739;49.334;8.792;2023-01-23T09:34:31;3.10;99.90
9399;DHT22;4739;49.334;8.792;2023-01-23T09:36:57;3.20;99.90
9399;DHT22;4739;49.334;8.792;2023-01-23T09:39:22;3.10;99.90
9399;DHT22;4739;49.334;8.792;2023-01-23T09:41:48;3.00;99.90
9399;DHT22;4739;49.334;8.792;2023-01-23T09:46:47;3.00;99.90
9399;DHT22;4739;49.334;8.792;2023-01-23T09:54:49;3.00;99.90
9399;DHT22;4739;49.334;8.792;2023-01-23T10:02:29;3.00;99.90
9399;DHT22;4739;49.334;8.792;2023-01-23T10:04:56;3.00;99.90
9399;DHT22;4739;49.334;8.792;2023-01-23T10:18:26;3.10;99.90
9399;DHT22;4739;49.334;8.792;2023-01-23T10:24:02;3.20;99.90
9399;DHT22;4739;49.334;8.792;2023-01-23T10:26:33;3.30;99.90
9399;DHT22;4739;49.334;8.792;2023-01-23T10:29:09;3.30;99.90
9399;DHT22;4739;49.334;8.792;2023-01-23T10:31:42;3.40;99.90
9399;DHT22;4739;49.334;8.792;2023-01-23T10:34:20;3.50;99.90
9399;DHT22;4739;49.334;8.792;2023-01-23T10:39:57;3.50;99.90
9399;DHT22;4739;49.334;8.792;2023-01-23T10:42:26;3.50;99.90
9399;DHT22;4739;49.334;8.792;2023-01-23T10:44:52;3.50;99.90
9399;DHT22;4739;49.334;8.792;2023-01-23T10:47:35;3.40;99.90
9399;DHT22;4739;49.334;8.792;2023-01-23T10:50:02;3.50;99.90
9399;DHT22;4739;49.334;8.792;2023-01-23T10:52:37;3.40;99.90
9399;DHT22;4739;49.334;8.792;2023-01-23T10:55:05;3.50;99.90
9399;DHT22;4739;49.334;8.792;2023-01-23T10:57:44;3.40;99.90
9399;DHT22;4739;49.334;8.792;2023-01-23T11:02:53;3.40;99.90
9399;DHT22;4739;49.334;8.792;2023-01-23T11:05:39;3.50;99.90
9399;DHT22;4739;49.334;8.792;2023-01-23T11:10:47;3.50;99.90
9399;DHT22;4739;49.334;8.792;2023-01-23T11:13:28;3.60;99.90
9399;DHT22;4739;49.334;8.792;2023-01-23T11:15:54;3.60;99.90
9399;DHT22;4739;49.334;8.792;2023-01-23T11:18:33;3.70;99.90
9399;DHT22;4739;49.334;8.792;2023-01-23T11:21:00;3.70;99.90
9399;DHT22;4739;49.334;8.792;2023-01-23T11:23:26;3.80;99.90
9399;DHT22;4739;49.334;8.792;2023-01-23T11:25:53;3.70;99.90
9399;DHT22;4739;49.334;8.792;2023-01-23T11:28:27;3.70;99.90
9399;DHT22;4739;49.334;8.792;2023-01-23T11:38:54;3.80;99.90
9399;DHT22;4739;49.334;8.792;2023-01-23T11:41:28;3.80;99.90
9399;DHT22;4739;49.334;8.792;2023-01-23T11:43:55;3.90;99.90
9399;DHT22;4739;49.334;8.792;2023-01-23T11:46:48;3.90;99.90
9399;DHT22;4739;49.334;8.792;2023-01-23T11:49:33;3.90;99.90
9399;DHT22;4739;49.334;8.792;2023-01-23T12:03:18;4.10;99.90
9399;DHT22;4739;49.334;8.792;2023-01-23T12:11:14;4.20;99.90
9399;DHT22;4739;49.334;8.792;2023-01-23T12:16:57;4.30;99.90
9399;DHT22;4739;49.334;8.792;2023-01-23T12:22:23;4.20;99.90
9399;DHT22;4739;49.334;8.792;2023-01-23T12:36:01;4.30;99.90
9399;DHT22;4739;49.334;8.792;2023-01-23T12:38:33;4.10;99.90
9399;DHT22;4739;49.334;8.792;2023-01-23T12:44:04;4.40;99.90
9399;DHT22;4739;49.334;8.792;2023-01-23T12:46:33;4.40;99.90
9399;DHT22;4739;49.334;8.792;2023-01-23T12:49:26;4.40;99.90
9399;DHT22;4739;49.334;8.792;2023-01-23T12:52:04;4.50;99.90
9399;DHT22;4739;49.334;8.792;2023-01-23T12:54:38;4.60;99.90
9399;DHT22;4739;49.334;8.792;2023-01-23T12:57:07;4.60;99.90
9399;DHT22;4739;49.334;8.792;2023-01-23T12:59:54;4.60;99.90
9399;DHT22;4739;49.334;8.792;2023-01-23T13:02:29;4.50;99.90
9399;DHT22;4739;49.334;8.792;2023-01-23T13:07:47;4.40;99.90
9399;DHT22;4739;49.334;8.792;2023-01-23T13:10:32;4.30;99.90
9399;DHT22;4739;49.334;8.792;2023-01-23T13:13:20;4.30;99.90
9399;DHT22;4739;49.334;8.792;2023-01-23T13:16:13;4.30;99.90
9399;DHT22;4739;49.334;8.792;2023-01-23T13:18:39;4.20;99.90
9399;DHT22;4739;49.334;8.792;2023-01-23T13:21:34;4.30;99.90
9399;DHT22;4739;49.334;8.792;2023-01-23T13:24:39;4.30;99.90
9399;DHT22;4739;49.334;8.792;2023-01-23T13:32:55;4.30;99.90
9399;DHT22;4739;49.334;8.792;2023-01-23T13:48:59;4.70;99.90
9399;DHT22;4739;49.334;8.792;2023-01-23T13:51:48;4.80;99.90
9399;DHT22;4739;49.334;8.792;2023-01-23T13:54:35;4.70;99.90
9399;DHT22;4739;49.334;8.792;2023-01-23T13:57:20;4.70;99.90
9399;DHT22;4739;49.334;8.792;2023-01-23T13:59:48;4.70;99.90
9399;DHT22;4739;49.334;8.792;2023-01-23T14:02:22;4.70;99.90
9399;DHT22;4739;49.334;8.792;2023-01-23T14:05:12;4.70;99.90
9399;DHT22;4739;49.334;8.792;2023-01-23T14:07:41;4.70;99.90
9399;DHT22;4739;49.334;8.792;2023-01-23T14:12:47;4.80;99.90
9399;DHT22;4739;49.334;8.792;2023-01-23T14:15:21;4.70;99.90
9399;DHT22;4739;49.334;8.792;2023-01-23T14:21:23;4.90;99.90
9399;DHT22;4739;49.334;8.792;2023-01-23T14:23:52;5.00;99.90
9399;DHT22;4739;49.334;8.792;2023-01-23T14:26:23;5.00;99.90
9399;DHT22;4739;49.334;8.792;2023-01-23T14:28:57;5.00;99.90
9399;DHT22;4739;49.334;8.792;2023-01-23T14:31:33;5.00;99.90
9399;DHT22;4739;49.334;8.792;2023-01-23T14:36:26;5.00;99.90
9399;DHT22;4739;49.334;8.792;2023-01-23T14:38:54;5.00;99.90
9399;DHT22;4739;49.334;8.792;2023-01-23T14:41:24;5.00;99.90
9399;DHT22;4739;49.334;8.792;2023-01-23T14:43:53;5.00;99.90
9399;DHT22;4739;49.334;8.792;2023-01-23T14:46:27;4.80;99.90
9399;DHT22;4739;49.334;8.792;2023-01-23T14:48:56;4.70;99.90
9399;DHT22;4739;49.334;8.792;2023-01-23T14:51:26;4.70;99.90
9399;DHT22;4739;49.334;8.792;2023-01-23T14:54:00;4.70;99.90
9399;DHT22;4739;49.334;8.792;2023-01-23T14:56:31;4.70;99.90
9399;DHT22;4739;49.334;8.792;2023-01-23T14:59:00;4.70;99.90
9399;DHT22;4739;49.334;8.792;2023-01-23T15:01:27;4.70;99.90
9399;DHT22;4739;49.334;8.792;2023-01-23T15:04:06;4.70;99.90
9399;DHT22;4739;49.334;8.792;2023-01-23T15:06:53;4.60;99.90
9399;DHT22;4739;49.334;8.792;2023-01-23T15:09:30;4.50;99.90
9399;DHT22;4739;49.334;8.792;2023-01-23T15:12:13;4.60;99.90
9399;DHT22;4739;49.334;8.792;2023-01-23T15:14:40;4.50;99.90
9399;DHT22;4739;49.334;8.792;2023-01-23T15:17:18;4.40;99.90
9399;DHT22;4739;49.334;8.792;2023-01-23T15:19:49;4.30;99.90
9399;DHT22;4739;49.334;8.792;2023-01-23T15:22:24;4.30;99.90
9399;DHT22;4739;49.334;8.792;2023-01-23T15:24:50;4.30;99.90
9399;DHT22;4739;49.334;8.792;2023-01-23T15:27:32;4.20;99.90
9399;DHT22;4739;49.334;8.792;2023-01-23T15:30:36;4.10;99.90
9399;DHT22;4739;49.334;8.792;2023-01-23T15:33:18;4.00;99.90
9399;DHT22;4739;49.334;8.792;2023-01-23T15:35:46;4.00;99.90
9399;DHT22;4739;49.334;8.792;2023-01-23T15:38:15;4.00;99.90
9399;DHT22;4739;49.334;8.792;2023-01-23T15:40:41;3.90;99.90
9399;DHT22;4739;49.334;8.792;2023-01-23T15:43:17;3.90;99.90
9399;DHT22;4739;49.334;8.792;2023-01-23T15:45:43;3.80;99.90
9399;DHT22;4739;49.334;8.792;2023-01-23T15:48:09;3.80;99.90
9399;DHT22;4739;49.334;8.792;2023-01-23T15:50:35;3.80;99.90
9399;DHT22;4739;49.334;8.792;2023-01-23T15:53:01;3.80;99.90
9399;DHT22;4739;49.334;8.792;2023-01-23T15:55:27;3.80;99.90
9399;DHT22;4739;49.334;8.792;2023-01-23T15:57:54;3.80;99.90
9399;DHT22;4739;49.334;8.792;2023-01-23T16:00:22;3.60;99.90
9399;DHT22;4739;49.334;8.792;2023-01-23T16:02:52;3.40;99.90
9399;DHT22;4739;49.334;8.792;2023-01-23T16:05:19;3.30;99.90
9399;DHT22;4739;49.334;8.792;2023-01-23T16:07:46;3.20;99.90
9399;DHT22;4739;49.334;8.792;2023-01-23T16:10:22;3.10;99.90
9399;DHT22;4739;49.334;8.792;2023-01-23T16:12:50;3.10;99.90
9399;DHT22;4739;49.334;8.792;2023-01-23T16:15:21;2.80;99.90
9399;DHT22;4739;49.334;8.792;2023-01-23T16:17:47;2.80;99.90
9399;DHT22;4739;49.334;8.792;2023-01-23T16:20:14;2.80;99.90
9399;DHT22;4739;49.334;8.792;2023-01-23T16:22:41;2.80;99.90
9399;DHT22;4739;49.334;8.792;2023-01-23T16:25:16;2.70;99.90
9399;DHT22;4739;49.334;8.792;2023-01-23T16:27:42;2.50;99.90
9399;DHT22;4739;49.334;8.792;2023-01-23T16:30:15;2.60;99.90
9399;DHT22;4739;49.334;8.792;2023-01-23T16:32:41;2.40;99.90
9399;DHT22;4739;49.334;8.792;2023-01-23T16:35:08;2.30;99.90
9399;DHT22;4739;49.334;8.792;2023-01-23T16:37:35;2.30;99.90
9399;DHT22;4739;49.334;8.792;2023-01-23T16:40:02;2.20;99.90
9399;DHT22;4739;49.334;8.792;2023-01-23T16:42:29;2.10;99.90
9399;DHT22;4739;49.334;8.792;2023-01-23T16:44:54;2.00;99.90
9399;DHT22;4739;49.334;8.792;2023-01-23T16:47:22;2.00;99.90
9399;DHT22;4739;49.334;8.792;2023-01-23T16:49:47;1.90;99.90
9399;DHT22;4739;49.334;8.792;2023-01-23T16:52:13;2.00;99.90
9399;DHT22;4739;49.334;8.792;2023-01-23T16:54:40;2.00;99.90
9399;DHT22;4739;49.334;8.792;2023-01-23T16:57:08;1.90;99.90
9399;DHT22;4739;49.334;8.792;2023-01-23T16:59:35;1.70;99.90
9399;DHT22;4739;49.334;8.792;2023-01-23T17:04:43;1.80;99.90
9399;DHT22;4739;49.334;8.792;2023-01-23T17:07:13;1.70;99.90
9399;DHT22;4739;49.334;8.792;2023-01-23T17:09:40;1.50;99.90
9399;DHT22;4739;49.334;8.792;2023-01-23T17:12:07;1.50;99.90
9399;DHT22;4739;49.334;8.792;2023-01-23T17:14:34;1.50;99.90
9399;DHT22;4739;49.334;8.792;2023-01-23T17:17:07;1.40;99.90
9399;DHT22;4739;49.334;8.792;2023-01-23T17:19:36;1.40;99.90
9399;DHT22;4739;49.334;8.792;2023-01-23T17:22:04;1.40;99.90
9399;DHT22;4739;49.334;8.792;2023-01-23T17:24:31;1.30;99.90
9399;DHT22;4739;49.334;8.792;2023-01-23T17:26:56;1.30;99.90
9399;DHT22;4739;49.334;8.792;2023-01-23T17:29:23;1.30;99.90
9399;DHT22;4739;49.334;8.792;2023-01-23T17:31:49;1.20;99.90
9399;DHT22;4739;49.334;8.792;2023-01-23T17:34:25;1.30;99.90
9399;DHT22;4739;49.334;8.792;2023-01-23T17:36:55;1.30;99.90
9399;DHT22;4739;49.334;8.792;2023-01-23T17:39:21;1.20;99.90
9399;DHT22;4739;49.334;8.792;2023-01-23T17:41:46;1.20;99.90
9399;DHT22;4739;49.334;8.792;2023-01-23T17:44:12;1.20;99.90
9399;DHT22;4739;49.334;8.792;2023-01-23T17:46:38;1.20;99.90
9399;DHT22;4739;49.334;8.792;2023-01-23T17:51:44;1.20;99.90
9399;DHT22;4739;49.334;8.792;2023-01-23T17:54:17;1.10;99.90
9399;DHT22;4739;49.334;8.792;2023-01-23T17:56:43;1.20;99.90
9399;DHT22;4739;49.334;8.792;2023-01-23T17:59:09;1.20;99.90
9399;DHT22;4739;49.334;8.792;2023-01-23T18:01:34;1.20;99.90
9399;DHT22;4739;49.334;8.792;2023-01-23T18:04:00;1.20;99.90
9399;DHT22;4739;49.334;8.792;2023-01-23T18:06:25;1.20;99.90
9399;DHT22;4739;49.334;8.792;2023-01-23T18:08:51;1.30;99.90
9399;DHT22;4739;49.334;8.792;2023-01-23T18:11:22;1.30;99.90
9399;DHT22;4739;49.334;8.792;2023-01-23T18:16:39;1.30;99.90
9399;DHT22;4739;49.334;8.792;2023-01-23T18:19:23;1.30;99.90
9399;DHT22;4739;49.334;8.792;2023-01-23T18:21:51;1.40;99.90
9399;DHT22;4739;49.334;8.792;2023-01-23T18:24:31;1.40;99.90
9399;DHT22;4739;49.334;8.792;2023-01-23T18:27:08;1.40;99.90
9399;DHT22;4739;49.334;8.792;2023-01-23T18:30:05;1.60;99.90
9399;DHT22;4739;49.334;8.792;2023-01-23T18:35:42;1.60;99.90
9399;DHT22;4739;49.334;8.792;2023-01-23T18:44:01;1.70;99.90
9399;DHT22;4739;49.334;8.792;2023-01-23T18:46:29;1.80;99.90
9399;DHT22;4739;49.334;8.792;2023-01-23T18:48:55;1.90;99.90